sensor_id;sensor_type;location;lat;lon;timestamp;pressure;altitude;pressure_sealevel;temperature;humidity
76762;BME280;65705;51.032;13.790;2023-08-01T00:00:50;99212.09;;;20.95;65.87
76762;BME280;65705;51.032;13.790;2023-08-01T00:03:15;99208.28;;;20.91;67.16
76762;BME280;65705;51.032;13.790;2023-08-01T00:05:41;99193.81;;;20.87;67.29
76762;BME280;65705;51.032;13.790;2023-08-01T00:08:11;99189.31;;;20.87;67.41
76762;BME280;65705;51.032;13.790;2023-08-01T00:10:40;99192.22;;;20.86;67.49
76762;BME280;65705;51.032;13.790;2023-08-01T00:13:07;99190.28;;;20.81;67.92
76762;BME280;65705;51.032;13.790;2023-08-01T00:15:33;99176.94;;;20.81;67.76
76762;BME280;65705;51.032;13.790;2023-08-01T00:17:58;99171.56;;;20.76;67.93
76762;BME280;65705;51.032;13.790;2023-08-01T00:20:25;99156.06;;;20.73;67.63
76762;BME280;65705;51.032;13.790;2023-08-01T00:22:51;99156.88;;;20.74;67.11
76762;BME280;65705;51.032;13.790;2023-08-01T00:25:17;99147.81;;;20.75;67.18
76762;BME280;65705;51.032;13.790;2023-08-01T00:27:42;99155.25;;;20.73;67.19
76762;BME280;65705;51.032;13.790;2023-08-01T00:30:08;99143.03;;;20.77;66.39
76762;BME280;65705;51.032;13.790;2023-08-01T00:32:35;99139.28;;;20.78;66.13
76762;BME280;65705;51.032;13.790;2023-08-01T00:35:01;99138.72;;;20.76;65.75
76762;BME280;65705;51.032;13.790;2023-08-01T00:37:26;99134.22;;;20.76;65.37
76762;BME280;65705;51.032;13.790;2023-08-01T00:39:52;99127.28;;;20.75;65.11
76762;BME280;65705;51.032;13.790;2023-08-01T00:42:18;99129.75;;;20.82;64.45
76762;BME280;65705;51.032;13.790;2023-08-01T00:44:43;99114.50;;;20.77;64.38
76762;BME280;65705;51.032;13.790;2023-08-01T00:47:10;99119.03;;;20.77;64.57
76762;BME280;65705;51.032;13.790;2023-08-01T00:49:35;99103.84;;;20.77;64.54
76762;BME280;65705;51.032;13.790;2023-08-01T00:52:01;99108.91;;;20.79;63.94
76762;BME280;65705;51.032;13.790;2023-08-01T00:54:27;99095.84;;;20.77;64.24
76762;BME280;65705;51.032;13.790;2023-08-01T00:56:53;99093.47;;;20.81;64.64
76762;BME280;65705;51.032;13.790;2023-08-01T00:59:18;99091.53;;;20.76;64.00
76762;BME280;65705;51.032;13.790;2023-08-01T01:01:44;99089.44;;;20.78;63.48
76762;BME280;65705;51.032;13.790;2023-08-01T01:04:10;99092.91;;;20.79;62.94
76762;BME280;65705;51.032;13.790;2023-08-01T01:06:45;99086.75;;;20.78;62.95
76762;BME280;65705;51.032;13.790;2023-08-01T01:09:17;99079.63;;;20.84;63.11
76762;BME280;65705;51.032;13.790;2023-08-01T01:11:44;99079.63;;;20.84;62.21
76762;BME280;65705;51.032;13.790;2023-08-01T01:14:10;99067.88;;;20.85;62.21
76762;BME280;65705;51.032;13.790;2023-08-01T01:16:36;99071.38;;;20.85;61.85
76762;BME280;65705;51.032;13.790;2023-08-01T01:19:05;99064.19;;;20.86;61.57
76762;BME280;65705;51.032;13.790;2023-08-01T01:21:32;99067.41;;;20.88;61.74
76762;BME280;65705;51.032;13.790;2023-08-01T01:24:00;99056.19;;;20.86;62.07
76762;BME280;65705;51.032;13.790;2023-08-01T01:26:26;99055.91;;;20.87;62.33
76762;BME280;65705;51.032;13.790;2023-08-01T01:28:53;99055.97;;;20.92;62.12
76762;BME280;65705;51.032;13.790;2023-08-01T01:31:20;99052.25;;;20.93;61.97
76762;BME280;65705;51.032;13.790;2023-08-01T01:33:46;99054.13;;;20.93;61.72
76762;BME280;65705;51.032;13.790;2023-08-01T01:36:12;99039.69;;;20.94;61.87
76762;BME280;65705;51.032;13.790;2023-08-01T01:38:38;99040.47;;;20.89;60.18
76762;BME280;65705;51.032;13.790;2023-08-01T01:41:03;99042.13;;;20.95;58.50
76762;BME280;65705;51.032;13.790;2023-08-01T01:43:29;99036.47;;;20.92;58.58
76762;BME280;65705;51.032;13.790;2023-08-01T01:45:55;99032.00;;;20.97;58.31
76762;BME280;65705;51.032;13.790;2023-08-01T01:48:20;99033.06;;;20.96;58.38
76762;BME280;65705;51.032;13.790;2023-08-01T01:50:46;99021.31;;;20.97;58.25
76762;BME280;65705;51.032;13.790;2023-08-01T01:53:11;99030.16;;;20.98;58.41
76762;BME280;65705;51.032;13.790;2023-08-01T01:55:37;99027.56;;;21.03;58.13
76762;BME280;65705;51.032;13.790;2023-08-01T01:58:03;99016.25;;;20.96;58.22
76762;BME280;65705;51.032;13.790;2023-08-01T02:00:30;99020.63;;;21.02;58.13
76762;BME280;65705;51.032;13.790;2023-08-01T02:02:55;99040.34;;;21.01;58.15
76762;BME280;65705;51.032;13.790;2023-08-01T02:05:21;99021.28;;;20.92;59.01
76762;BME280;65705;51.032;13.790;2023-08-01T02:07:47;99020.97;;;20.89;60.34
76762;BME280;65705;51.032;13.790;2023-08-01T02:10:12;99022.53;;;20.85;61.73
76762;BME280;65705;51.032;13.790;2023-08-01T02:12:38;99017.47;;;20.83;62.39
76762;BME280;65705;51.032;13.790;2023-08-01T02:15:05;99020.50;;;20.70;63.54
76762;BME280;65705;51.032;13.790;2023-08-01T02:17:31;99013.47;;;20.59;64.32
76762;BME280;65705;51.032;13.790;2023-08-01T02:19:57;99018.00;;;20.59;64.65
76762;BME280;65705;51.032;13.790;2023-08-01T02:22:24;99010.75;;;20.54;65.37
76762;BME280;65705;51.032;13.790;2023-08-01T02:24:50;99005.88;;;20.46;66.06
76762;BME280;65705;51.032;13.790;2023-08-01T02:27:16;99010.06;;;20.42;67.10
76762;BME280;65705;51.032;13.790;2023-08-01T02:29:41;99000.72;;;20.40;67.37
76762;BME280;65705;51.032;13.790;2023-08-01T02:32:07;98999.31;;;20.32;67.86
76762;BME280;65705;51.032;13.790;2023-08-01T02:34:33;98991.41;;;20.21;69.00
76762;BME280;65705;51.032;13.790;2023-08-01T02:36:59;98984.81;;;20.23;69.62
76762;BME280;65705;51.032;13.790;2023-08-01T02:39:25;98986.34;;;20.19;69.81
76762;BME280;65705;51.032;13.790;2023-08-01T02:41:50;98985.69;;;20.12;70.26
76762;BME280;65705;51.032;13.790;2023-08-01T02:44:16;98976.09;;;20.11;70.90
76762;BME280;65705;51.032;13.790;2023-08-01T02:46:42;98977.91;;;20.06;71.21
76762;BME280;65705;51.032;13.790;2023-08-01T02:49:07;98967.81;;;20.08;71.43
76762;BME280;65705;51.032;13.790;2023-08-01T02:51:33;98962.47;;;20.08;71.86
76762;BME280;65705;51.032;13.790;2023-08-01T02:53:59;98963.50;;;20.07;72.43
76762;BME280;65705;51.032;13.790;2023-08-01T02:56:24;98955.75;;;20.05;72.47
76762;BME280;65705;51.032;13.790;2023-08-01T02:58:50;98955.16;;;19.98;72.86
76762;BME280;65705;51.032;13.790;2023-08-01T03:01:17;98948.44;;;19.95;72.68
76762;BME280;65705;51.032;13.790;2023-08-01T03:03:43;98942.09;;;19.97;72.70
76762;BME280;65705;51.032;13.790;2023-08-01T03:06:08;98935.13;;;19.95;73.11
76762;BME280;65705;51.032;13.790;2023-08-01T03:08:34;98929.06;;;19.78;74.30
76762;BME280;65705;51.032;13.790;2023-08-01T03:11:00;98934.81;;;19.70;75.27
76762;BME280;65705;51.032;13.790;2023-08-01T03:13:25;98920.31;;;19.61;75.99
76762;BME280;65705;51.032;13.790;2023-08-01T03:15:52;98922.19;;;19.61;75.77
76762;BME280;65705;51.032;13.790;2023-08-01T03:18:17;98915.06;;;19.66;75.78
76762;BME280;65705;51.032;13.790;2023-08-01T03:20:43;98915.84;;;19.67;75.85
76762;BME280;65705;51.032;13.790;2023-08-01T03:23:09;98903.59;;;19.66;76.07
76762;BME280;65705;51.032;13.790;2023-08-01T03:25:34;98898.28;;;19.66;75.88
76762;BME280;65705;51.032;13.790;2023-08-01T03:28:00;98896.66;;;19.65;75.03
76762;BME280;65705;51.032;13.790;2023-08-01T03:30:27;98895.31;;;19.62;75.36
76762;BME280;65705;51.032;13.790;2023-08-01T03:32:54;98890.44;;;19.59;75.72
76762;BME280;65705;51.032;13.790;2023-08-01T03:35:19;98876.91;;;19.61;74.92
76762;BME280;65705;51.032;13.790;2023-08-01T03:37:45;98867.31;;;19.60;74.68
76762;BME280;65705;51.032;13.790;2023-08-01T03:40:11;98862.78;;;19.60;74.70
76762;BME280;65705;51.032;13.790;2023-08-01T03:42:37;98862.28;;;19.63;74.81
76762;BME280;65705;51.032;13.790;2023-08-01T03:45:03;98871.09;;;19.64;75.74
76762;BME280;65705;51.032;13.790;2023-08-01T03:47:30;98866.91;;;19.68;75.67
76762;BME280;65705;51.032;13.790;2023-08-01T03:49:56;98861.06;;;19.71;75.44
76762;BME280;65705;51.032;13.790;2023-08-01T03:52:22;98857.72;;;19.59;75.22
76762;BME280;65705;51.032;13.790;2023-08-01T03:54:48;98855.78;;;19.54;75.49
76762;BME280;65705;51.032;13.790;2023-08-01T03:57:14;98859.88;;;19.62;74.83
76762;BME280;65705;51.032;13.790;2023-08-01T03:59:40;98852.22;;;19.65;74.64
76762;BME280;65705;51.032;13.790;2023-08-01T04:02:06;98850.59;;;19.64;74.33
76762;BME280;65705;51.032;13.790;2023-08-01T04:04:31;98844.72;;;19.62;74.55
76762;BME280;65705;51.032;13.790;2023-08-01T04:06:57;98839.47;;;19.67;74.63
76762;BME280;65705;51.032;13.790;2023-08-01T04:09:23;98846.88;;;19.65;74.45
76762;BME280;65705;51.032;13.790;2023-08-01T04:11:48;98842.84;;;19.63;74.98
76762;BME280;65705;51.032;13.790;2023-08-01T04:14:14;98838.34;;;19.63;74.96
76762;BME280;65705;51.032;13.790;2023-08-01T04:16:40;98835.38;;;19.60;74.60
76762;BME280;65705;51.032;13.790;2023-08-01T04:19:05;98830.25;;;19.53;74.05
76762;BME280;65705;51.032;13.790;2023-08-01T04:21:31;98825.22;;;19.57;73.92
76762;BME280;65705;51.032;13.790;2023-08-01T04:23:56;98822.25;;;19.53;73.66
76762;BME280;65705;51.032;13.790;2023-08-01T04:26:22;98816.13;;;19.53;73.84
76762;BME280;65705;51.032;13.790;2023-08-01T04:28:48;98822.00;;;19.55;73.55
76762;BME280;65705;51.032;13.790;2023-08-01T04:31:14;98817.66;;;19.49;73.58
76762;BME280;65705;51.032;13.790;2023-08-01T04:33:40;98812.34;;;19.49;73.87
76762;BME280;65705;51.032;13.790;2023-08-01T04:36:05;98810.53;;;19.54;73.78
76762;BME280;65705;51.032;13.790;2023-08-01T04:38:31;98802.56;;;19.54;74.17
76762;BME280;65705;51.032;13.790;2023-08-01T04:40:57;98807.94;;;19.59;74.48
76762;BME280;65705;51.032;13.790;2023-08-01T04:43:23;98796.84;;;19.67;74.39
76762;BME280;65705;51.032;13.790;2023-08-01T04:45:48;98792.66;;;19.71;74.62
76762;BME280;65705;51.032;13.790;2023-08-01T04:48:14;98794.84;;;19.79;74.10
76762;BME280;65705;51.032;13.790;2023-08-01T04:50:40;98788.28;;;19.87;74.01
76762;BME280;65705;51.032;13.790;2023-08-01T04:53:06;98789.69;;;19.94;74.16
76762;BME280;65705;51.032;13.790;2023-08-01T04:55:32;98783.06;;;19.97;74.47
76762;BME280;65705;51.032;13.790;2023-08-01T04:57:57;98783.66;;;20.04;74.37
76762;BME280;65705;51.032;13.790;2023-08-01T05:00:23;98789.50;;;20.01;74.63
76762;BME280;65705;51.032;13.790;2023-08-01T05:02:49;98772.22;;;20.04;74.31
76762;BME280;65705;51.032;13.790;2023-08-01T05:05:15;98778.03;;;20.01;74.55
76762;BME280;65705;51.032;13.790;2023-08-01T05:07:42;98763.97;;;20.05;74.19
76762;BME280;65705;51.032;13.790;2023-08-01T05:10:08;98766.38;;;20.07;74.42
76762;BME280;65705;51.032;13.790;2023-08-01T05:12:33;98758.41;;;20.12;74.04
76762;BME280;65705;51.032;13.790;2023-08-01T05:14:59;98761.03;;;20.07;74.15
76762;BME280;65705;51.032;13.790;2023-08-01T05:17:25;98759.44;;;20.06;73.10
76762;BME280;65705;51.032;13.790;2023-08-01T05:19:50;98754.16;;;20.11;72.96
76762;BME280;65705;51.032;13.790;2023-08-01T05:22:16;98749.66;;;20.11;73.74
76762;BME280;65705;51.032;13.790;2023-08-01T05:24:42;98749.66;;;20.11;74.03
76762;BME280;65705;51.032;13.790;2023-08-01T05:27:07;98747.50;;;20.13;74.48
76762;BME280;65705;51.032;13.790;2023-08-01T05:29:33;98746.16;;;20.11;74.51
76762;BME280;65705;51.032;13.790;2023-08-01T05:31:59;98743.47;;;20.06;75.63
76762;BME280;65705;51.032;13.790;2023-08-01T05:34:24;98742.00;;;19.93;76.98
76762;BME280;65705;51.032;13.790;2023-08-01T05:36:50;98744.38;;;19.89;77.45
76762;BME280;65705;51.032;13.790;2023-08-01T05:39:16;98740.66;;;19.90;77.29
76762;BME280;65705;51.032;13.790;2023-08-01T05:41:42;98739.09;;;19.94;77.33
76762;BME280;65705;51.032;13.790;2023-08-01T05:44:08;98738.06;;;20.01;77.32
76762;BME280;65705;51.032;13.790;2023-08-01T05:46:34;98733.03;;;20.04;76.71
76762;BME280;65705;51.032;13.790;2023-08-01T05:49:00;98730.16;;;20.06;76.82
76762;BME280;65705;51.032;13.790;2023-08-01T05:51:26;98725.38;;;20.08;76.89
76762;BME280;65705;51.032;13.790;2023-08-01T05:53:51;98721.38;;;20.10;76.77
76762;BME280;65705;51.032;13.790;2023-08-01T05:56:17;98722.44;;;20.09;76.46
76762;BME280;65705;51.032;13.790;2023-08-01T05:58:43;98717.91;;;20.10;77.49
76762;BME280;65705;51.032;13.790;2023-08-01T06:01:10;98712.09;;;20.13;76.96
76762;BME280;65705;51.032;13.790;2023-08-01T06:03:37;98716.34;;;20.14;76.11
76762;BME280;65705;51.032;13.790;2023-08-01T06:06:03;98707.38;;;20.20;76.94
76762;BME280;65705;51.032;13.790;2023-08-01T06:08:30;98701.22;;;20.19;76.05
76762;BME280;65705;51.032;13.790;2023-08-01T06:10:56;98708.22;;;20.25;76.32
76762;BME280;65705;51.032;13.790;2023-08-01T06:13:21;98699.69;;;20.23;75.29
76762;BME280;65705;51.032;13.790;2023-08-01T06:15:47;98698.06;;;20.22;74.91
76762;BME280;65705;51.032;13.790;2023-08-01T06:18:13;98693.06;;;20.31;74.81
76762;BME280;65705;51.032;13.790;2023-08-01T06:20:39;98689.91;;;20.39;74.39
76762;BME280;65705;51.032;13.790;2023-08-01T06:23:05;98676.88;;;20.42;73.86
76762;BME280;65705;51.032;13.790;2023-08-01T06:25:30;98689.66;;;20.40;74.49
76762;BME280;65705;51.032;13.790;2023-08-01T06:27:56;98686.69;;;20.37;75.05
76762;BME280;65705;51.032;13.790;2023-08-01T06:30:22;98692.03;;;20.37;74.78
76762;BME280;65705;51.032;13.790;2023-08-01T06:32:48;98696.88;;;20.40;75.30
76762;BME280;65705;51.032;13.790;2023-08-01T06:35:13;98684.63;;;20.44;75.20
76762;BME280;65705;51.032;13.790;2023-08-01T06:37:39;98685.44;;;20.44;75.03
76762;BME280;65705;51.032;13.790;2023-08-01T06:40:06;98686.72;;;20.42;75.53
76762;BME280;65705;51.032;13.790;2023-08-01T06:42:33;98694.22;;;20.45;74.99
76762;BME280;65705;51.032;13.790;2023-08-01T06:44:59;98691.84;;;20.43;72.58
76762;BME280;65705;51.032;13.790;2023-08-01T06:47:24;98688.91;;;20.45;72.01
76762;BME280;65705;51.032;13.790;2023-08-01T06:49:50;98698.53;;;20.51;72.12
76762;BME280;65705;51.032;13.790;2023-08-01T06:52:16;98691.06;;;20.53;71.96
76762;BME280;65705;51.032;13.790;2023-08-01T06:54:41;98690.56;;;20.56;72.54
76762;BME280;65705;51.032;13.790;2023-08-01T06:57:07;98685.78;;;20.58;72.03
76762;BME280;65705;51.032;13.790;2023-08-01T06:59:33;98688.47;;;20.58;72.31
76762;BME280;65705;51.032;13.790;2023-08-01T07:01:59;98684.19;;;20.62;72.81
76762;BME280;65705;51.032;13.790;2023-08-01T07:04:25;98692.50;;;20.70;72.34
76762;BME280;65705;51.032;13.790;2023-08-01T07:06:51;98683.75;;;20.80;73.02
76762;BME280;65705;51.032;13.790;2023-08-01T07:09:16;98692.06;;;20.88;72.52
76762;BME280;65705;51.032;13.790;2023-08-01T07:11:42;98686.78;;;20.93;73.30
76762;BME280;65705;51.032;13.790;2023-08-01T07:14:08;98695.28;;;20.95;71.82
76762;BME280;65705;51.032;13.790;2023-08-01T07:16:33;98693.75;;;21.00;71.55
76762;BME280;65705;51.032;13.790;2023-08-01T07:19:00;98694.84;;;21.04;71.22
76762;BME280;65705;51.032;13.790;2023-08-01T07:21:26;98693.28;;;21.08;71.05
76762;BME280;65705;51.032;13.790;2023-08-01T07:23:52;98688.50;;;21.20;70.77
76762;BME280;65705;51.032;13.790;2023-08-01T07:26:18;98686.38;;;21.27;71.10
76762;BME280;65705;51.032;13.790;2023-08-01T07:28:43;98682.69;;;21.38;71.43
76762;BME280;65705;51.032;13.790;2023-08-01T07:31:09;98673.38;;;21.50;70.88
76762;BME280;65705;51.032;13.790;2023-08-01T07:33:36;98672.34;;;21.61;70.87
76762;BME280;65705;51.032;13.790;2023-08-01T07:36:02;98675.00;;;21.66;70.81
76762;BME280;65705;51.032;13.790;2023-08-01T07:38:28;98681.69;;;21.69;70.44
76762;BME280;65705;51.032;13.790;2023-08-01T07:40:54;98678.75;;;21.70;69.24
76762;BME280;65705;51.032;13.790;2023-08-01T07:43:20;98678.75;;;21.65;66.55
76762;BME280;65705;51.032;13.790;2023-08-01T07:45:46;98680.06;;;21.63;66.20
76762;BME280;65705;51.032;13.790;2023-08-01T07:48:12;98684.09;;;21.65;66.20
76762;BME280;65705;51.032;13.790;2023-08-01T07:50:37;98681.66;;;21.64;65.79
76762;BME280;65705;51.032;13.790;2023-08-01T07:53:03;98686.72;;;21.60;65.17
76762;BME280;65705;51.032;13.790;2023-08-01T07:55:33;98668.59;;;21.62;65.61
76762;BME280;65705;51.032;13.790;2023-08-01T07:57:59;98673.41;;;21.70;65.30
76762;BME280;65705;51.032;13.790;2023-08-01T08:00:24;98677.94;;;21.75;65.49
76762;BME280;65705;51.032;13.790;2023-08-01T08:02:50;98677.19;;;21.79;65.74
76762;BME280;65705;51.032;13.790;2023-08-01T08:05:16;98682.25;;;21.91;64.81
76762;BME280;65705;51.032;13.790;2023-08-01T08:07:41;98686.81;;;21.90;64.09
76762;BME280;65705;51.032;13.790;2023-08-01T08:10:07;98679.59;;;21.96;64.44
76762;BME280;65705;51.032;13.790;2023-08-01T08:12:33;98681.47;;;22.06;64.28
76762;BME280;65705;51.032;13.790;2023-08-01T08:14:59;98682.81;;;22.13;62.71
76762;BME280;65705;51.032;13.790;2023-08-01T08:17:25;98678.25;;;22.19;63.24
76762;BME280;65705;51.032;13.790;2023-08-01T08:19:50;98675.56;;;22.29;62.85
76762;BME280;65705;51.032;13.790;2023-08-01T08:22:16;98662.19;;;22.34;62.54
76762;BME280;65705;51.032;13.790;2023-08-01T08:24:42;98673.94;;;22.43;61.89
76762;BME280;65705;51.032;13.790;2023-08-01T08:27:07;98673.69;;;22.49;61.23
76762;BME280;65705;51.032;13.790;2023-08-01T08:29:33;98665.41;;;22.56;61.65
76762;BME280;65705;51.032;13.790;2023-08-01T08:31:59;98657.34;;;22.66;61.25
76762;BME280;65705;51.032;13.790;2023-08-01T08:34:24;98661.59;;;22.72;61.11
76762;BME280;65705;51.032;13.790;2023-08-01T08:36:51;98654.94;;;22.74;60.67
76762;BME280;65705;51.032;13.790;2023-08-01T08:39:17;98643.94;;;22.76;60.22
76762;BME280;65705;51.032;13.790;2023-08-01T08:41:48;98644.50;;;22.63;60.94
76762;BME280;65705;51.032;13.790;2023-08-01T08:44:19;98659.75;;;22.62;60.37
76762;BME280;65705;51.032;13.790;2023-08-01T08:46:53;98651.97;;;22.66;60.27
76762;BME280;65705;51.032;13.790;2023-08-01T08:49:20;98655.47;;;22.76;60.09
76762;BME280;65705;51.032;13.790;2023-08-01T08:51:48;98663.19;;;22.83;59.84
76762;BME280;65705;51.032;13.790;2023-08-01T08:54:15;98657.81;;;22.88;59.02
76762;BME280;65705;51.032;13.790;2023-08-01T08:56:41;98663.94;;;22.93;58.84
76762;BME280;65705;51.032;13.790;2023-08-01T08:59:10;98665.88;;;22.78;58.91
76762;BME280;65705;51.032;13.790;2023-08-01T09:01:37;98659.16;;;22.85;59.23
76762;BME280;65705;51.032;13.790;2023-08-01T09:04:03;98660.47;;;22.88;59.04
76762;BME280;65705;51.032;13.790;2023-08-01T09:06:37;98657.03;;;22.77;59.51
76762;BME280;65705;51.032;13.790;2023-08-01T09:09:06;98651.41;;;22.89;59.87
76762;BME280;65705;51.032;13.790;2023-08-01T09:11:45;98636.09;;;22.94;59.37
76762;BME280;65705;51.032;13.790;2023-08-01T09:14:11;98636.66;;;22.91;59.14
76762;BME280;65705;51.032;13.790;2023-08-01T09:16:37;98626.22;;;22.90;59.16
76762;BME280;65705;51.032;13.790;2023-08-01T09:19:05;98619.81;;;22.86;58.37
76762;BME280;65705;51.032;13.790;2023-08-01T09:21:32;98627.06;;;22.80;58.91
76762;BME280;65705;51.032;13.790;2023-08-01T09:24:14;98614.78;;;22.74;58.99
76762;BME280;65705;51.032;13.790;2023-08-01T09:26:40;98626.81;;;22.72;59.35
76762;BME280;65705;51.032;13.790;2023-08-01T09:29:06;98617.50;;;22.69;60.23
76762;BME280;65705;51.032;13.790;2023-08-01T09:31:34;98617.22;;;22.61;59.49
76762;BME280;65705;51.032;13.790;2023-08-01T09:34:01;98615.13;;;22.58;60.24
76762;BME280;65705;51.032;13.790;2023-08-01T09:36:27;98614.03;;;22.49;60.16
76762;BME280;65705;51.032;13.790;2023-08-01T09:39:01;98599.59;;;22.50;60.19
76762;BME280;65705;51.032;13.790;2023-08-01T09:41:29;98565.91;;;22.49;59.74
76762;BME280;65705;51.032;13.790;2023-08-01T09:43:55;98562.72;;;22.42;58.77
76762;BME280;65705;51.032;13.790;2023-08-01T09:46:21;98578.22;;;22.40;59.07
76762;BME280;65705;51.032;13.790;2023-08-01T09:48:47;98598.28;;;22.47;58.80
76762;BME280;65705;51.032;13.790;2023-08-01T09:51:15;98601.44;;;22.54;58.72
76762;BME280;65705;51.032;13.790;2023-08-01T09:53:50;98582.19;;;22.62;57.71
76762;BME280;65705;51.032;13.790;2023-08-01T09:56:26;98584.59;;;22.64;57.77
76762;BME280;65705;51.032;13.790;2023-08-01T09:58:53;98584.88;;;22.67;58.13
76762;BME280;65705;51.032;13.790;2023-08-01T10:01:22;98574.38;;;22.76;56.48
76762;BME280;65705;51.032;13.790;2023-08-01T10:03:49;98577.09;;;22.71;57.01
76762;BME280;65705;51.032;13.790;2023-08-01T10:06:23;98581.88;;;22.74;56.67
76762;BME280;65705;51.032;13.790;2023-08-01T10:08:51;98582.19;;;22.67;56.27
76762;BME280;65705;51.032;13.790;2023-08-01T10:11:20;98593.41;;;22.69;56.13
76762;BME280;65705;51.032;13.790;2023-08-01T10:13:46;98584.59;;;22.69;56.04
76762;BME280;65705;51.032;13.790;2023-08-01T10:16:13;98598.22;;;22.72;55.47
76762;BME280;65705;51.032;13.790;2023-08-01T10:18:40;98601.13;;;22.81;55.54
76762;BME280;65705;51.032;13.790;2023-08-01T10:21:08;98602.41;;;22.88;54.41
76762;BME280;65705;51.032;13.790;2023-08-01T10:23:35;98605.34;;;22.92;54.83
76762;BME280;65705;51.032;13.790;2023-08-01T10:26:03;98617.09;;;22.96;54.54
76762;BME280;65705;51.032;13.790;2023-08-01T10:28:34;98613.31;;;23.02;54.24
76762;BME280;65705;51.032;13.790;2023-08-01T10:31:11;98622.91;;;23.13;52.60
76762;BME280;65705;51.032;13.790;2023-08-01T10:33:38;98632.75;;;23.23;52.59
76762;BME280;65705;51.032;13.790;2023-08-01T10:38:50;98647.53;;;23.15;52.75
76762;BME280;65705;51.032;13.790;2023-08-01T10:41:34;98652.03;;;23.20;52.53
76762;BME280;65705;51.032;13.790;2023-08-01T10:46:49;98661.00;;;23.49;51.58
76762;BME280;65705;51.032;13.790;2023-08-01T10:49:16;98655.25;;;23.70;51.30
76762;BME280;65705;51.032;13.790;2023-08-01T10:51:42;98653.22;;;23.86;51.37
76762;BME280;65705;51.032;13.790;2023-08-01T10:54:25;98642.44;;;24.01;49.86
76762;BME280;65705;51.032;13.790;2023-08-01T10:56:52;98638.88;;;24.11;49.65
76762;BME280;65705;51.032;13.790;2023-08-01T10:59:19;98642.03;;;24.18;49.78
76762;BME280;65705;51.032;13.790;2023-08-01T11:01:48;98627.28;;;24.15;49.31
76762;BME280;65705;51.032;13.790;2023-08-01T11:04:15;98626.22;;;24.16;49.65
76762;BME280;65705;51.032;13.790;2023-08-01T11:06:49;98623.19;;;24.23;49.17
76762;BME280;65705;51.032;13.790;2023-08-01T11:09:20;98628.78;;;24.26;48.61
76762;BME280;65705;51.032;13.790;2023-08-01T11:11:55;98626.91;;;24.27;49.00
76762;BME280;65705;51.032;13.790;2023-08-01T11:14:22;98628.41;;;24.38;49.33
76762;BME280;65705;51.032;13.790;2023-08-01T11:16:49;98611.97;;;24.44;48.66
76762;BME280;65705;51.032;13.790;2023-08-01T11:19:23;98621.28;;;24.52;47.96
76762;BME280;65705;51.032;13.790;2023-08-01T11:21:49;98621.75;;;24.59;48.29
76762;BME280;65705;51.032;13.790;2023-08-01T11:24:16;98627.06;;;24.64;48.00
76762;BME280;65705;51.032;13.790;2023-08-01T11:26:43;98627.75;;;24.74;48.37
76762;BME280;65705;51.032;13.790;2023-08-01T11:29:13;98631.06;;;24.66;47.10
76762;BME280;65705;51.032;13.790;2023-08-01T11:31:39;98626.47;;;24.67;46.85
76762;BME280;65705;51.032;13.790;2023-08-01T11:34:07;98645.97;;;24.77;46.74
76762;BME280;65705;51.032;13.790;2023-08-01T11:36:35;98638.84;;;24.91;47.04
76762;BME280;65705;51.032;13.790;2023-08-01T11:39:01;98648.13;;;24.99;46.86
76762;BME280;65705;51.032;13.790;2023-08-01T11:41:28;98650.78;;;25.04;46.53
76762;BME280;65705;51.032;13.790;2023-08-01T11:43:54;98649.31;;;25.12;46.82
76762;BME280;65705;51.032;13.790;2023-08-01T11:46:21;98652.88;;;25.07;46.95
76762;BME280;65705;51.032;13.790;2023-08-01T11:48:48;98659.09;;;25.02;46.77
76762;BME280;65705;51.032;13.790;2023-08-01T11:51:16;98634.91;;;24.84;47.19
76762;BME280;65705;51.032;13.790;2023-08-01T11:53:42;98631.84;;;24.67;47.28
76762;BME280;65705;51.032;13.790;2023-08-01T11:56:07;98640.53;;;24.59;48.19
76762;BME280;65705;51.032;13.790;2023-08-01T11:58:40;98632.34;;;24.45;48.08
76762;BME280;65705;51.032;13.790;2023-08-01T12:01:11;98639.22;;;24.28;48.60
76762;BME280;65705;51.032;13.790;2023-08-01T12:03:50;98635.38;;;24.10;49.13
76762;BME280;65705;51.032;13.790;2023-08-01T12:06:17;98645.13;;;23.96;49.81
76762;BME280;65705;51.032;13.790;2023-08-01T12:08:45;98642.81;;;23.84;50.14
76762;BME280;65705;51.032;13.790;2023-08-01T12:11:24;98652.56;;;23.70;50.83
76762;BME280;65705;51.032;13.790;2023-08-01T12:16:26;98651.66;;;23.46;51.50
76762;BME280;65705;51.032;13.790;2023-08-01T12:18:52;98678.22;;;23.38;51.85
76762;BME280;65705;51.032;13.790;2023-08-01T12:21:17;98685.41;;;22.73;53.62
76762;BME280;65705;51.032;13.790;2023-08-01T12:23:43;98704.19;;;22.38;59.56
76762;BME280;65705;51.032;13.790;2023-08-01T12:26:09;98692.88;;;21.66;65.09
76762;BME280;65705;51.032;13.790;2023-08-01T12:28:35;98692.28;;;20.77;67.05
76762;BME280;65705;51.032;13.790;2023-08-01T12:31:01;98699.69;;;20.65;69.90
76762;BME280;65705;51.032;13.790;2023-08-01T12:33:27;98703.28;;;20.44;70.05
76762;BME280;65705;51.032;13.790;2023-08-01T12:35:53;98710.03;;;20.20;71.11
76762;BME280;65705;51.032;13.790;2023-08-01T12:38:18;98725.31;;;20.03;73.15
76762;BME280;65705;51.032;13.790;2023-08-01T12:40:44;98728.88;;;19.86;74.16
76762;BME280;65705;51.032;13.790;2023-08-01T12:43:09;98751.81;;;19.87;74.59
76762;BME280;65705;51.032;13.790;2023-08-01T12:45:35;98757.44;;;19.91;75.65
76762;BME280;65705;51.032;13.790;2023-08-01T12:48:01;98757.47;;;19.96;75.74
76762;BME280;65705;51.032;13.790;2023-08-01T12:50:26;98762.56;;;19.98;75.75
76762;BME280;65705;51.032;13.790;2023-08-01T12:52:52;98754.56;;;19.98;76.25
76762;BME280;65705;51.032;13.790;2023-08-01T12:55:18;98764.69;;;20.01;75.96